Terminal Aerodrome Forecast
Issued by NWS Pittsburgh, PA

Current Version | Previous Version | Text Only | Print | Product List | Glossary Off
Versions: 1 2 3 4 5 6 7 8 9 10 11 12 13 14 15 16 17 18 19 20 21 22 23 24

000
FTUS41 KPBZ 252014 AAB
TAFPIT
TAF AMD
KPIT 252014Z 2520/2624 29010G16KT P6SM SCT050
     FM260000 28003KT P6SM SCT250
     FM261000 30003KT 3SM BR SCT003
     FM261300 30005KT P6SM SKC=

USA.gov is the U.S. government's official web portal to all federal, state and local government web resources and services.